Terminal Aerodrome Forecast
Issued by NWS Wilmington, OH

Current Version | Previous Version | Graphics & Text | Print | Product List | Glossary On
Versions: 1 2 3 4 5 6 7 8 9 10 11 12 13 14 15 16
000
FTUS41 KILN 200700 AAA
TAFILN
TAF AMD
KILN 200746Z 2008/2106 28012KT P6SM OVC025
     FM201400 27010KT P6SM SCT035
     FM201500 26012G20KT P6SM SCT035
     FM201800 26015G23KT P6SM BKN035
     FM210000 26013KT P6SM VCSH OVC025=

USA.gov is the U.S. government's official web portal to all federal, state and local government web resources and services.